createdAt,value
2023-04-23T00:03:29.240Z,96278.63
2023-04-23T00:08:52.959Z,96280.78
2023-04-23T00:14:14.410Z,96265.47
2023-04-23T00:19:35.893Z,96263.84
2023-04-23T00:24:57.058Z,96259.78
2023-04-23T00:30:19.063Z,96253.44
2023-04-23T00:35:39.759Z,96255.75
2023-04-23T00:41:00.477Z,96250.06
2023-04-23T00:46:21.980Z,96243.53
2023-04-23T00:51:43.064Z,96247.63
2023-04-23T00:57:03.895Z,96248.94
2023-04-23T01:02:28.181Z,96243.72
2023-04-23T01:07:49.553Z,96244.56
2023-04-23T01:13:13.049Z,96242.44
2023-04-23T01:18:34.479Z,96252.06
2023-04-23T01:23:56.042Z,96239.00
2023-04-23T01:29:18.322Z,96242.59
2023-04-23T01:34:41.304Z,96233.28
2023-04-23T01:40:02.305Z,96237.53
2023-04-23T01:45:23.810Z,96254.88
2023-04-23T01:50:45.160Z,96262.03
2023-04-23T01:56:06.685Z,96247.00
2023-04-23T02:01:44.951Z,96241.63
2023-04-23T02:07:06.118Z,96243.75
2023-04-23T02:12:26.893Z,96240.13
2023-04-23T02:17:51.238Z,96245.38
2023-04-23T02:23:12.512Z,96242.28
2023-04-23T02:28:33.556Z,96252.41
2023-04-23T02:33:54.249Z,96246.38
2023-04-23T02:39:15.944Z,96247.00
2023-04-23T02:44:36.755Z,96255.19
2023-04-23T02:49:58.278Z,96261.06
2023-04-23T02:55:19.322Z,96257.31
2023-04-23T03:00:40.075Z,96246.38
2023-04-23T03:06:02.080Z,96237.69
2023-04-23T03:11:22.921Z,96251.28
2023-04-23T03:16:44.334Z,96248.63
2023-04-23T03:22:06.043Z,96250.41
2023-04-23T03:27:27.206Z,96245.66
2023-04-23T03:32:50.375Z,96252.22
2023-04-23T03:38:11.172Z,96247.63
2023-04-23T03:43:32.532Z,96237.00
2023-04-23T03:48:59.547Z,96231.47
2023-04-23T03:54:23.438Z,96223.00
2023-04-23T04:00:19.469Z,96177.06
2023-04-23T04:05:41.688Z,96176.56
2023-04-23T04:11:02.395Z,96189.66
2023-04-23T04:16:23.221Z,96197.63
2023-04-23T04:21:43.917Z,96195.84
2023-04-23T04:27:06.013Z,96204.66
2023-04-23T04:32:27.136Z,96212.22
2023-04-23T04:37:48.062Z,96214.50
2023-04-23T04:43:10.247Z,96221.53
2023-04-23T04:48:31.409Z,96225.13
2023-04-23T04:53:53.144Z,96231.16
2023-04-23T04:59:13.996Z,96239.19
2023-04-23T05:04:34.746Z,96243.09
2023-04-23T05:09:55.604Z,96240.16
2023-04-23T05:15:16.709Z,96248.97
2023-04-23T05:20:38.561Z,96248.00
2023-04-23T05:25:59.606Z,96249.44
2023-04-23T05:31:20.487Z,96253.53
2023-04-23T05:36:41.360Z,96257.16
2023-04-23T05:42:03.165Z,96251.09
2023-04-23T05:47:24.142Z,96263.66
2023-04-23T05:52:44.926Z,96262.19
2023-04-23T05:58:06.232Z,96270.84
2023-04-23T06:03:27.655Z,96268.06
2023-04-23T06:08:51.179Z,96266.75
2023-04-23T06:29:19.731Z,96269.47
2023-04-23T06:35:01.643Z,96264.13
2023-04-23T06:40:23.364Z,96267.75
2023-04-23T06:45:44.089Z,96266.09
2023-04-23T06:51:06.111Z,96263.44
2023-04-23T07:34:16.363Z,96266.97
2023-04-23T07:39:37.080Z,96269.22
2023-04-23T07:44:57.952Z,96268.59
2023-04-23T07:50:19.174Z,96270.13
2023-04-23T07:55:39.880Z,96268.97
2023-04-23T08:01:02.636Z,96262.31
2023-04-23T08:06:24.053Z,96270.94
2023-04-23T08:11:45.064Z,96272.72
2023-04-23T08:17:05.838Z,96277.06
2023-04-23T08:22:26.354Z,96286.25
2023-04-23T08:27:47.642Z,96285.78
2023-04-23T08:33:08.383Z,96284.69
2023-04-23T08:38:29.362Z,96288.56
2023-04-23T08:43:59.451Z,96274.94
2023-04-23T08:49:20.486Z,96279.00
2023-04-23T08:54:45.943Z,96275.81
2023-04-23T09:00:11.720Z,96290.03
2023-04-23T09:05:32.706Z,96289.97
2023-04-23T09:10:56.179Z,96287.25
2023-04-23T09:16:17.064Z,96292.13
2023-04-23T09:21:40.104Z,96303.63
2023-04-23T09:27:01.046Z,96300.56
2023-04-23T09:32:32.384Z,96306.63
2023-04-23T09:37:53.383Z,96316.34
2023-04-23T09:43:14.264Z,96321.72
2023-04-23T09:48:43.109Z,96318.91
2023-04-23T10:00:26.073Z,96310.75
2023-04-23T10:06:00.469Z,96318.06
2023-04-23T10:11:25.414Z,96315.53
2023-04-23T10:16:49.344Z,96320.72
2023-04-23T10:27:52.933Z,96326.28
2023-04-23T10:33:29.091Z,96324.28
2023-04-23T10:38:57.914Z,96313.22
2023-04-23T10:44:44.902Z,96310.84
2023-04-23T10:50:28.575Z,96314.84
2023-04-23T10:55:49.450Z,96303.41
2023-04-23T11:01:10.598Z,96307.16
2023-04-23T11:06:50.290Z,96302.19
2023-04-23T11:12:32.843Z,96306.53
2023-04-23T11:17:53.905Z,96305.88
2023-04-23T11:23:32.383Z,96301.09
2023-04-23T11:28:55.054Z,96303.09
2023-04-23T11:34:17.653Z,96300.19
2023-04-23T11:39:41.382Z,96305.38
2023-04-23T11:45:02.997Z,96316.22
2023-04-23T11:50:26.736Z,96298.47
2023-04-23T11:55:49.469Z,96299.94
2023-04-23T12:01:12.672Z,96294.31
2023-04-23T12:06:33.826Z,96290.06
2023-04-23T12:11:58.597Z,96291.78
2023-04-23T12:17:19.795Z,96290.78
2023-04-23T12:22:41.049Z,96299.38
2023-04-23T12:28:05.473Z,96292.06
2023-04-23T12:33:30.274Z,96293.75
2023-04-23T12:38:51.473Z,96291.41
2023-04-23T12:44:12.819Z,96284.63
2023-04-23T12:49:35.807Z,96285.72
2023-04-23T12:54:58.703Z,96286.06
2023-04-23T13:00:19.887Z,96273.75
2023-04-23T13:05:41.837Z,96276.09
2023-04-23T13:11:02.764Z,96262.53
2023-04-23T13:16:27.493Z,96253.16
2023-04-23T13:21:48.249Z,96259.59
2023-04-23T13:27:11.213Z,96245.22
2023-04-23T13:32:32.720Z,96245.28
2023-04-23T13:37:53.674Z,96240.59
2023-04-23T13:43:14.697Z,96216.44
2023-04-23T13:48:35.368Z,96208.13
2023-04-23T13:53:56.246Z,96204.28
2023-04-23T13:59:19.448Z,96207.34
2023-04-23T14:04:41.197Z,96201.81
2023-04-23T14:10:02.347Z,96203.41
2023-04-23T14:15:23.553Z,96197.13
2023-04-23T14:20:44.876Z,96198.75
2023-04-23T14:26:10.632Z,96188.34
2023-04-23T14:31:31.898Z,96188.81
2023-04-23T14:36:53.421Z,96177.75
2023-04-23T14:42:14.089Z,96178.81
2023-04-23T14:47:35.177Z,96173.53
2023-04-23T14:52:56.175Z,96170.94
2023-04-23T14:58:17.452Z,96166.19
2023-04-23T15:03:38.673Z,96152.84
2023-04-23T15:09:02.174Z,96144.88
2023-04-23T15:14:32.044Z,96145.09
2023-04-23T15:19:54.523Z,96132.22
2023-04-23T15:25:16.648Z,96133.22
2023-04-23T15:30:37.602Z,96136.34
2023-04-23T15:35:59.913Z,96136.66
2023-04-23T15:41:21.087Z,96129.94
2023-04-23T15:46:41.963Z,96126.44
2023-04-23T15:52:02.813Z,96117.69
2023-04-23T15:57:23.805Z,96111.56
2023-04-23T16:02:45.549Z,96099.13
2023-04-23T16:08:06.414Z,96094.28
2023-04-23T16:13:29.017Z,96086.84
2023-04-23T16:18:50.131Z,96080.41
2023-04-23T16:24:11.834Z,96071.03
2023-04-23T16:29:32.928Z,96059.69
2023-04-23T16:34:53.800Z,96055.69
2023-04-23T16:40:15.956Z,96055.63
2023-04-23T16:45:37.922Z,96053.44
2023-04-23T16:50:59.916Z,96053.88
2023-04-23T16:56:21.284Z,96048.13
2023-04-23T17:01:42.307Z,96043.03
2023-04-23T17:07:03.463Z,96047.63
2023-04-23T17:12:24.410Z,96034.47
2023-04-23T17:17:45.304Z,96035.25
2023-04-23T17:23:06.154Z,96027.41
2023-04-23T17:28:27.024Z,96018.72
2023-04-23T17:33:49.664Z,96008.41
2023-04-23T17:39:10.547Z,95998.47
2023-04-23T17:44:31.419Z,95997.22
2023-04-23T17:49:53.220Z,95991.06
2023-04-23T17:55:17.302Z,95991.47
2023-04-23T18:00:40.248Z,95987.44
2023-04-23T18:06:01.596Z,95987.72
2023-04-23T18:11:22.656Z,95991.53
2023-04-23T18:16:43.569Z,95986.28
2023-04-23T18:22:04.565Z,95981.47
2023-04-23T18:27:25.620Z,95985.00
2023-04-23T18:32:59.514Z,95991.00
2023-04-23T18:38:46.791Z,95985.44
2023-04-23T18:44:07.826Z,95984.75
2023-04-23T18:49:43.919Z,95981.50
2023-04-23T18:55:08.251Z,95984.00
2023-04-23T19:00:29.901Z,95983.78
2023-04-23T19:05:50.948Z,95983.25
2023-04-23T19:11:12.187Z,95985.16
2023-04-23T19:16:33.413Z,95975.50
2023-04-23T19:21:54.775Z,95977.94
2023-04-23T19:27:15.721Z,95970.44
2023-04-23T19:32:36.718Z,95962.50
2023-04-23T19:37:57.876Z,95964.59
2023-04-23T19:43:20.063Z,95959.69
2023-04-23T19:48:41.501Z,95952.63
2023-04-23T19:54:05.351Z,95937.50
2023-04-23T19:59:26.555Z,95932.03
2023-04-23T20:04:47.503Z,95928.41
2023-04-23T20:10:10.657Z,95916.50
2023-04-23T20:15:32.584Z,95915.38
2023-04-23T20:20:54.765Z,95906.25
2023-04-23T20:26:16.111Z,95902.66
2023-04-23T20:31:37.482Z,95904.97
2023-04-23T20:37:02.582Z,95905.28
2023-04-23T20:42:25.654Z,95899.16
2023-04-23T20:47:47.428Z,95902.78
2023-04-23T20:53:08.518Z,95896.84
2023-04-23T20:58:29.815Z,95903.81
2023-04-23T21:03:53.133Z,95893.59
2023-04-23T21:09:14.588Z,95883.94
2023-04-23T21:14:36.271Z,95867.25
2023-04-23T21:19:57.393Z,95862.09
2023-04-23T21:25:21.287Z,95860.66
2023-04-23T21:30:49.445Z,95873.28
2023-04-23T21:36:10.818Z,95866.47
2023-04-23T21:41:32.002Z,95872.00
2023-04-23T21:46:52.780Z,95872.06
2023-04-23T21:52:14.500Z,95865.66
2023-04-23T21:57:35.892Z,95865.56
2023-04-23T22:02:57.255Z,95864.75
2023-04-23T22:08:19.035Z,95848.63
2023-04-23T22:13:40.566Z,95842.38
2023-04-23T22:19:02.456Z,95830.16
2023-04-23T22:24:23.824Z,95821.97
2023-04-23T22:29:44.724Z,95803.53
2023-04-23T22:35:07.343Z,95802.47
2023-04-23T22:40:28.558Z,95802.00
2023-04-23T22:45:49.277Z,95803.56
2023-04-23T22:51:13.929Z,95798.81
2023-04-23T22:56:34.896Z,95798.94
2023-04-23T23:01:55.551Z,95800.31
2023-04-23T23:07:16.502Z,95804.09
2023-04-23T23:12:37.366Z,95809.50
2023-04-23T23:17:58.333Z,95817.00
2023-04-23T23:23:19.056Z,95814.34
2023-04-23T23:28:39.808Z,95825.13
2023-04-23T23:34:00.540Z,95872.22
2023-04-23T23:39:21.309Z,95879.06
2023-04-23T23:44:42.242Z,95875.63
2023-04-23T23:50:03.612Z,95861.41
2023-04-23T23:55:24.903Z,95846.06
